Time;durP1;ratioP1;P1;durP2;ratioP2;P2;SDS_P1;SDS_P2;PMS_P1;PMS_P2;Temp;Humidity;BMP_temperature;BMP_pressure;BME280_temperature;BME280_humidity;BME280_pressure;Samples;Min_cycle;Max_cycle;Signal;HPM_P1;HPM_P2
2022/06/12 00:00:58;;;;;;;27.02;6.45;;;;;;;;;;5056223;28;20029;-77
2022/06/12 00:03:25;;;;;;;25.58;5.80;;;;;;;;;;5053255;28;20109;-76
2022/06/12 00:05:52;;;;;;;21.95;5.78;;;;;;;;;;5051396;28;20072;-77
2022/06/12 00:08:19;;;;;;;28.08;5.78;;;;;;;;;;5053239;28;20082;-77
2022/06/12 00:10:47;;;;;;;25.27;5.47;;;;;;;;;;5053297;28;20512;-77
2022/06/12 00:13:15;;;;;;;25.10;5.63;;;;;;;;;;5054975;28;20032;-76
2022/06/12 00:15:41;;;;;;;20.65;5.45;;;;;;;;;;5055604;28;20029;-77
2022/06/12 00:18:07;;;;;;;19.83;5.50;;;;;;;;;;5055737;28;20028;-76
2022/06/12 00:20:33;;;;;;;27.02;5.90;;;;;;;;;;5055898;28;20436;-77
2022/06/12 00:22:59;;;;;;;24.02;5.80;;;;;;;;;;5056697;28;20025;-76
2022/06/12 00:25:27;;;;;;;22.05;6.25;;;;;;;;;;5056188;28;20032;-76
2022/06/12 00:27:53;;;;;;;26.95;7.38;;;;;;;;;;5057012;28;20033;-76
2022/06/12 00:30:22;;;;;;;32.92;7.65;;;;;;;;;;5053501;28;20029;-77
2022/06/12 00:32:52;;;;;;;25.38;7.22;;;;;;;;;;5052163;28;20492;-75
2022/06/12 00:35:19;;;;;;;32.13;12.57;;;;;;;;;;5053525;28;20501;-75
2022/06/12 00:37:45;;;;;;;27.05;7.32;;;;;;;;;;5058006;28;20071;-76
2022/06/12 00:40:12;;;;;;;21.25;6.00;;;;;;;;;;5059206;28;20035;-75
2022/06/12 00:42:42;;;;;;;26.40;6.13;;;;;;;;;;5051258;28;20420;-76
2022/06/12 00:45:27;;;;;;;20.45;5.80;;;;;;;;;;5053028;28;20060;-75
2022/06/12 00:48:01;;;;;;;26.73;6.03;;;;;;;;;;5051537;28;20100;-78
2022/06/12 00:50:27;;;;;;;19.88;5.22;;;;;;;;;;5054342;28;20404;-78
2022/06/12 00:52:54;;;;;;;22.88;5.15;;;;;;;;;;5052304;28;20446;-76
2022/06/12 00:55:25;;;;;;;26.70;5.43;;;;;;;;;;5049565;28;20120;-78
2022/06/12 00:57:53;;;;;;;22.08;5.47;;;;;;;;;;5052426;28;20025;-77
2022/06/12 01:00:19;;;;;;;25.70;6.80;;;;;;;;;;5052476;28;20049;-76
2022/06/12 01:02:45;;;;;;;29.20;6.90;;;;;;;;;;5052041;28;20028;-75
2022/06/12 01:07:59;;;;;;;22.40;6.20;;;;;;;;;;5052169;28;20097;-77
2022/06/12 01:10:28;;;;;;;18.63;5.82;;;;;;;;;;5052210;28;20033;-76
2022/06/12 01:13:10;;;;;;;20.02;5.35;;;;;;;;;;5052261;28;20044;-76
2022/06/12 01:15:50;;;;;;;21.92;5.78;;;;;;;;;;5051750;28;20025;-77
2022/06/12 01:18:18;;;;;;;20.80;5.60;;;;;;;;;;5050992;28;20033;-76
2022/06/12 01:20:48;;;;;;;20.67;5.68;;;;;;;;;;5052000;28;20062;-77
2022/06/12 01:23:26;;;;;;;22.05;5.93;;;;;;;;;;5050958;28;20049;-76
2022/06/12 01:26:05;;;;;;;24.90;6.43;;;;;;;;;;5052864;28;20025;-77
2022/06/12 01:28:34;;;;;;;22.83;5.78;;;;;;;;;;5051698;28;20025;-76
2022/06/12 01:31:06;;;;;;;26.55;5.75;;;;;;;;;;5051607;28;20048;-76
2022/06/12 01:33:35;;;;;;;23.30;6.03;;;;;;;;;;5052278;28;20013;-78
2022/06/12 01:36:03;;;;;;;22.50;5.18;;;;;;;;;;5051514;28;20040;-77
2022/06/12 01:38:38;;;;;;;22.83;7.75;;;;;;;;;;5052313;28;20026;-75
2022/06/12 01:41:10;;;;;;;28.27;8.55;;;;;;;;;;5052456;28;20432;-76
2022/06/12 01:43:40;;;;;;;23.92;7.35;;;;;;;;;;5052160;28;20029;-75
2022/06/12 01:46:11;;;;;;;26.48;7.65;;;;;;;;;;5051507;28;20397;-77
2022/06/12 01:48:46;;;;;;;27.48;8.13;;;;;;;;;;5051770;28;20049;-77
2022/06/12 01:51:15;;;;;;;22.17;7.65;;;;;;;;;;5052890;28;20025;-77
2022/06/12 01:53:47;;;;;;;21.13;8.02;;;;;;;;;;5052261;28;20540;-76
2022/06/12 01:56:16;;;;;;;27.15;7.93;;;;;;;;;;5056176;28;20073;-75
2022/06/12 01:58:45;;;;;;;30.10;8.05;;;;;;;;;;5052494;28;20315;-76
2022/06/12 02:01:23;;;;;;;25.70;7.38;;;;;;;;;;5051612;28;20025;-77
2022/06/12 02:03:54;;;;;;;21.77;7.03;;;;;;;;;;5057727;28;20025;-77
2022/06/12 02:06:27;;;;;;;23.38;6.47;;;;;;;;;;5058233;28;20052;-77
2022/06/12 02:08:57;;;;;;;20.40;6.33;;;;;;;;;;5060457;28;20044;-78
2022/06/12 02:14:12;;;;;;;23.17;6.38;;;;;;;;;;5057292;28;20036;-78
2022/06/12 02:16:41;;;;;;;23.83;6.40;;;;;;;;;;5055736;28;20024;-77
2022/06/12 02:19:15;;;;;;;19.30;5.82;;;;;;;;;;5063208;28;20037;-77
2022/06/12 02:21:43;;;;;;;20.80;5.47;;;;;;;;;;5065320;28;20063;-78
2022/06/12 02:24:15;;;;;;;21.33;5.88;;;;;;;;;;5056579;28;20123;-78
2022/06/12 02:26:57;;;;;;;16.50;5.88;;;;;;;;;;5054237;28;20028;-76
2022/06/12 02:29:24;;;;;;;24.15;6.50;;;;;;;;;;5055629;28;20048;-79
2022/06/12 02:31:52;;;;;;;21.63;6.75;;;;;;;;;;5055646;28;20459;-77
2022/06/12 02:34:25;;;;;;;27.40;6.22;;;;;;;;;;5056306;28;20013;-75
2022/06/12 02:36:54;;;;;;;23.88;5.95;;;;;;;;;;5055992;28;20021;-77
2022/06/12 02:39:22;;;;;;;27.27;6.85;;;;;;;;;;5057859;28;20017;-75
2022/06/12 02:41:50;;;;;;;19.02;6.38;;;;;;;;;;5056286;28;20058;-77
2022/06/12 02:44:20;;;;;;;23.08;7.22;;;;;;;;;;5056276;28;20028;-79
2022/06/12 02:46:46;;;;;;;39.10;12.73;;;;;;;;;;5061084;28;20052;-78
2022/06/12 02:49:14;;;;;;;24.63;9.07;;;;;;;;;;5060773;28;20029;-77
2022/06/12 02:52:02;;;;;;;17.05;6.22;;;;;;;;;;5054717;28;20040;-77
2022/06/12 02:54:32;;;;;;;22.45;6.97;;;;;;;;;;5057848;28;20107;-77
2022/06/12 02:57:01;;;;;;;24.15;6.72;;;;;;;;;;5055456;28;20032;-76
2022/06/12 02:59:37;;;;;;;17.75;5.95;;;;;;;;;;5055900;28;20028;-77
2022/06/12 03:02:06;;;;;;;21.35;6.30;;;;;;;;;;5055427;28;20424;-77
2022/06/12 03:04:45;;;;;;;16.73;6.25;;;;;;;;;;5056083;28;20030;-76
2022/06/12 03:07:12;;;;;;;20.27;6.43;;;;;;;;;;5055362;28;20469;-76
2022/06/12 03:09:38;;;;;;;20.35;7.13;;;;;;;;;;5054978;28;20025;-76
2022/06/12 03:12:05;;;;;;;25.02;6.72;;;;;;;;;;5057347;28;20024;-76
2022/06/12 03:14:31;;;;;;;21.67;7.00;;;;;;;;;;5056694;28;20048;-77
2022/06/12 03:16:58;;;;;;;21.52;6.60;;;;;;;;;;5058232;28;20044;-76
2022/06/12 03:19:46;;;;;;;19.63;5.97;;;;;;;;;;5058667;28;20029;-79
2022/06/12 03:22:29;;;;;;;25.95;7.20;;;;;;;;;;5059279;28;20078;-75
2022/06/12 03:25:14;;;;;;;18.10;6.25;;;;;;;;;;5055697;28;20024;-76
2022/06/12 03:27:48;;;;;;;18.20;5.90;;;;;;;;;;5059645;28;20025;-77
2022/06/12 03:30:33;;;;;;;14.55;5.05;;;;;;;;;;5055320;28;20029;-77
2022/06/12 03:33:12;;;;;;;16.70;5.47;;;;;;;;;;5055548;28;20562;-77
2022/06/12 03:35:38;;;;;;;22.92;6.00;;;;;;;;;;5061526;28;20057;-76
2022/06/12 03:38:19;;;;;;;16.38;5.97;;;;;;;;;;5058847;28;20108;-76
2022/06/12 03:40:52;;;;;;;16.20;5.57;;;;;;;;;;5054983;28;20394;-76
2022/06/12 03:43:24;;;;;;;18.30;5.70;;;;;;;;;;5054512;28;20063;-74
2022/06/12 03:46:06;;;;;;;18.08;5.95;;;;;;;;;;5056110;28;20082;-79
2022/06/12 03:48:38;;;;;;;17.42;5.40;;;;;;;;;;5054496;28;20029;-79
2022/06/12 03:51:17;;;;;;;15.65;5.72;;;;;;;;;;5054936;28;20067;-76
2022/06/12 03:53:48;;;;;;;22.33;5.60;;;;;;;;;;5055511;28;20500;-75
2022/06/12 03:59:15;;;;;;;12.70;5.35;;;;;;;;;;5055325;28;20562;-76
2022/06/12 04:01:42;;;;;;;18.27;5.80;;;;;;;;;;5054139;28;20054;-76
2022/06/12 04:04:08;;;;;;;17.45;5.35;;;;;;;;;;5055002;28;20131;-76
2022/06/12 04:06:35;;;;;;;15.48;5.28;;;;;;;;;;5053998;28;20081;-77
2022/06/12 04:09:06;;;;;;;18.42;5.28;;;;;;;;;;5053566;28;20551;-76
2022/06/12 04:11:34;;;;;;;18.25;5.65;;;;;;;;;;5060990;28;20033;-75
2022/06/12 04:14:01;;;;;;;14.85;5.28;;;;;;;;;;5065574;28;20017;-78
2022/06/12 04:16:27;;;;;;;15.57;5.38;;;;;;;;;;5064922;28;20036;-77
2022/06/12 04:18:53;;;;;;;16.65;5.40;;;;;;;;;;5065246;28;20072;-76
2022/06/12 04:21:31;;;;;;;11.85;4.63;;;;;;;;;;5064507;28;20088;-76
2022/06/12 04:24:13;;;;;;;16.02;4.78;;;;;;;;;;5062276;28;20021;-77
2022/06/12 04:26:42;;;;;;;10.75;4.65;;;;;;;;;;5058931;28;20036;-78
2022/06/12 04:29:11;;;;;;;12.38;4.70;;;;;;;;;;5053541;28;20609;-74
2022/06/12 04:31:38;;;;;;;18.23;5.20;;;;;;;;;;5057737;28;20021;-75
2022/06/12 04:34:08;;;;;;;13.38;5.43;;;;;;;;;;5058766;28;20035;-75
2022/06/12 04:36:34;;;;;;;20.90;6.20;;;;;;;;;;5062534;28;20051;-76
2022/06/12 04:39:00;;;;;;;22.90;5.72;;;;;;;;;;5060697;28;20045;-76
2022/06/12 04:41:29;;;;;;;23.63;6.78;;;;;;;;;;5056856;28;20036;-75
2022/06/12 04:43:55;;;;;;;22.15;5.95;;;;;;;;;;5054768;28;20486;-75
2022/06/12 04:46:22;;;;;;;27.48;6.50;;;;;;;;;;5054096;28;20081;-75
2022/06/12 04:48:50;;;;;;;24.63;6.53;;;;;;;;;;5053747;28;20385;-77
2022/06/12 04:51:16;;;;;;;26.05;6.25;;;;;;;;;;5052774;28;20064;-74
2022/06/12 04:53:43;;;;;;;21.17;5.82;;;;;;;;;;5053922;28;20029;-72
2022/06/12 04:56:09;;;;;;;22.23;5.90;;;;;;;;;;5052916;28;20065;-72
2022/06/12 04:58:36;;;;;;;22.45;5.68;;;;;;;;;;5054509;28;20040;-74
2022/06/12 05:01:02;;;;;;;26.30;6.25;;;;;;;;;;5053771;28;20025;-74
2022/06/12 05:03:28;;;;;;;32.08;5.97;;;;;;;;;;5053334;28;20029;-74
2022/06/12 05:05:55;;;;;;;25.85;5.25;;;;;;;;;;5054306;28;20036;-75
2022/06/12 05:08:21;;;;;;;20.17;4.68;;;;;;;;;;5053658;28;20640;-74
2022/06/12 05:10:48;;;;;;;21.30;4.35;;;;;;;;;;5051216;28;20111;-73
2022/06/12 05:13:14;;;;;;;20.25;4.65;;;;;;;;;;5051526;28;20024;-75
2022/06/12 05:15:40;;;;;;;20.02;4.13;;;;;;;;;;5051966;28;20048;-74
2022/06/12 05:18:07;;;;;;;30.40;4.53;;;;;;;;;;5060208;28;20493;-77
2022/06/12 05:20:34;;;;;;;26.55;4.80;;;;;;;;;;5060021;28;20029;-76
2022/06/12 05:23:01;;;;;;;31.77;6.72;;;;;;;;;;5054502;28;20108;-75
2022/06/12 05:25:27;;;;;;;26.92;5.30;;;;;;;;;;5061372;28;20078;-76
2022/06/12 05:27:53;;;;;;;21.75;4.13;;;;;;;;;;5067580;28;20059;-73
2022/06/12 05:30:22;;;;;;;23.85;4.13;;;;;;;;;;5068465;28;20120;-77
2022/06/12 05:32:50;;;;;;;24.25;4.32;;;;;;;;;;5070498;28;20053;-76
2022/06/12 05:35:16;;;;;;;26.48;4.88;;;;;;;;;;5062254;28;20018;-74
2022/06/12 05:37:42;;;;;;;26.70;4.38;;;;;;;;;;5066743;28;20024;-78
2022/06/12 05:40:10;;;;;;;25.30;4.28;;;;;;;;;;5056382;28;20021;-77
2022/06/12 05:42:37;;;;;;;21.30;4.00;;;;;;;;;;5054591;28;20039;-78
2022/06/12 05:45:04;;;;;;;22.52;3.83;;;;;;;;;;5056785;28;20021;-77
2022/06/12 05:47:30;;;;;;;22.98;3.85;;;;;;;;;;5056832;28;20021;-76
2022/06/12 05:49:56;;;;;;;26.55;4.32;;;;;;;;;;5057315;28;20120;-76
2022/06/12 05:52:22;;;;;;;26.23;4.05;;;;;;;;;;5057909;28;20029;-77
2022/06/12 05:54:48;;;;;;;23.27;4.80;;;;;;;;;;5057005;28;20017;-77
2022/06/12 05:57:14;;;;;;;30.27;3.95;;;;;;;;;;5057147;28;20021;-78
2022/06/12 05:59:39;;;;;;;25.20;3.60;;;;;;;;;;5056986;28;20484;-77
2022/06/12 06:02:06;;;;;;;23.38;4.47;;;;;;;;;;5056695;28;20079;-77
2022/06/12 06:04:32;;;;;;;23.15;4.03;;;;;;;;;;5057787;28;20105;-77
2022/06/12 06:06:59;;;;;;;25.17;3.97;;;;;;;;;;5058520;28;20082;-77
2022/06/12 06:09:26;;;;;;;18.70;3.65;;;;;;;;;;5057672;28;20029;-78
2022/06/12 06:11:52;;;;;;;26.95;3.90;;;;;;;;;;5058042;28;20117;-78
2022/06/12 06:14:18;;;;;;;29.63;5.13;;;;;;;;;;5058203;28;20056;-76
2022/06/12 06:16:45;;;;;;;20.10;3.38;;;;;;;;;;5056157;28;20506;-78
2022/06/12 06:19:12;;;;;;;21.65;4.00;;;;;;;;;;5057679;28;20438;-77
2022/06/12 06:21:39;;;;;;;26.70;4.15;;;;;;;;;;5058367;28;20045;-78
2022/06/12 06:24:05;;;;;;;27.42;4.57;;;;;;;;;;5058900;28;20028;-78
2022/06/12 06:26:31;;;;;;;27.42;4.47;;;;;;;;;;5064374;28;20025;-78
2022/06/12 06:28:57;;;;;;;25.13;4.28;;;;;;;;;;5068383;28;20063;-78
2022/06/12 06:31:24;;;;;;;24.17;4.95;;;;;;;;;;5065553;28;20096;-78
2022/06/12 06:33:50;;;;;;;23.05;4.28;;;;;;;;;;5071406;28;20100;-78
2022/06/12 06:36:16;;;;;;;35.50;4.68;;;;;;;;;;5071677;28;20051;-81
2022/06/12 06:38:43;;;;;;;28.17;4.68;;;;;;;;;;5064665;28;20044;-78
2022/06/12 06:41:09;;;;;;;28.73;4.30;;;;;;;;;;5061431;28;20044;-76
2022/06/12 06:46:13;;;;;;;24.42;4.05;;;;;;;;;;5057404;28;20470;-79
2022/06/12 06:46:21;;;;;;;28.15;4.70;;;;;;;;;;5058877;28;20089;-77
2022/06/12 06:48:47;;;;;;;27.13;4.38;;;;;;;;;;5058482;28;20025;-77
2022/06/12 06:51:13;;;;;;;22.27;4.05;;;;;;;;;;5056668;28;20032;-76
2022/06/12 06:53:39;;;;;;;27.50;4.00;;;;;;;;;;5055550;28;20028;-75
2022/06/12 06:56:05;;;;;;;23.27;3.88;;;;;;;;;;5057571;28;20163;-78
2022/06/12 06:58:32;;;;;;;27.95;5.00;;;;;;;;;;5057745;28;20033;-76
2022/06/12 07:00:58;;;;;;;25.80;3.95;;;;;;;;;;5057638;28;20521;-78
2022/06/12 07:03:25;;;;;;;24.35;4.70;;;;;;;;;;5059463;28;20029;-77
2022/06/12 07:05:51;;;;;;;19.67;3.55;;;;;;;;;;5056968;28;20479;-77
2022/06/12 07:08:18;;;;;;;21.90;4.60;;;;;;;;;;5056014;28;20474;-78
2022/06/12 07:10:44;;;;;;;26.27;3.67;;;;;;;;;;5055826;28;20025;-79
2022/06/12 07:13:12;;;;;;;28.90;6.07;;;;;;;;;;5059863;28;20032;-77
2022/06/12 07:15:38;;;;;;;22.45;4.28;;;;;;;;;;5056602;28;20017;-77
2022/06/12 07:18:05;;;;;;;17.10;3.35;;;;;;;;;;5055295;28;20033;-77
2022/06/12 07:20:33;;;;;;;17.60;3.65;;;;;;;;;;5055317;28;20040;-77
2022/06/12 07:22:59;;;;;;;19.90;2.72;;;;;;;;;;5055311;28;20024;-77
2022/06/12 07:25:25;;;;;;;21.10;3.05;;;;;;;;;;5055925;28;20040;-76
2022/06/12 07:27:51;;;;;;;13.98;3.22;;;;;;;;;;5055170;28;20044;-77
2022/06/12 07:30:21;;;;;;;17.80;3.20;;;;;;;;;;5054379;28;20036;-77
2022/06/12 07:32:47;;;;;;;19.85;3.45;;;;;;;;;;5054083;28;20024;-77
2022/06/12 07:35:13;;;;;;;20.40;3.65;;;;;;;;;;5055361;28;20485;-77
2022/06/12 07:37:40;;;;;;;21.58;3.58;;;;;;;;;;5054861;28;20021;-76
2022/06/12 07:40:07;;;;;;;22.13;3.28;;;;;;;;;;5054981;28;20104;-77
2022/06/12 07:42:34;;;;;;;18.10;3.08;;;;;;;;;;5055115;28;20021;-77
2022/06/12 07:45:00;;;;;;;17.38;3.53;;;;;;;;;;5054900;28;20477;-77
2022/06/12 07:47:27;;;;;;;22.48;3.20;;;;;;;;;;5055072;28;20040;-77
2022/06/12 07:49:53;;;;;;;19.83;2.78;;;;;;;;;;5056093;28;20018;-78
2022/06/12 07:52:20;;;;;;;19.20;3.17;;;;;;;;;;5053893;28;20371;-76
2022/06/12 07:54:46;;;;;;;24.13;3.65;;;;;;;;;;5054643;28;20363;-77
2022/06/12 07:57:12;;;;;;;19.73;3.03;;;;;;;;;;5057567;28;20079;-75
2022/06/12 07:59:38;;;;;;;13.15;3.10;;;;;;;;;;5057241;28;20049;-76
2022/06/12 08:02:05;;;;;;;16.67;2.83;;;;;;;;;;5058818;28;20040;-77
2022/06/12 08:04:31;;;;;;;13.50;2.92;;;;;;;;;;5059653;28;20017;-76
2022/06/12 08:06:57;;;;;;;15.93;3.10;;;;;;;;;;5061941;28;20021;-78
2022/06/12 08:09:24;;;;;;;16.42;3.13;;;;;;;;;;5059973;28;20056;-77
2022/06/12 08:11:50;;;;;;;15.43;3.33;;;;;;;;;;5060102;28;20025;-75
2022/06/12 08:14:18;;;;;;;17.67;2.95;;;;;;;;;;5057609;28;20060;-76
2022/06/12 08:16:44;;;;;;;17.05;3.05;;;;;;;;;;5056560;28;20029;-77
2022/06/12 08:21:56;;;;;;;16.33;3.10;;;;;;;;;;5061815;28;20043;-77
2022/06/12 08:24:22;;;;;;;14.23;2.67;;;;;;;;;;5061583;28;20044;-77
2022/06/12 08:26:48;;;;;;;15.00;2.95;;;;;;;;;;5057233;28;20020;-76
2022/06/12 08:29:14;;;;;;;15.48;2.58;;;;;;;;;;5062579;28;20029;-76
2022/06/12 08:31:43;;;;;;;17.70;2.88;;;;;;;;;;5060643;28;20032;-77
2022/06/12 08:34:11;;;;;;;15.15;2.70;;;;;;;;;;5060323;28;20032;-76
2022/06/12 08:36:39;;;;;;;18.42;3.22;;;;;;;;;;5059554;28;20017;-76
2022/06/12 08:39:05;;;;;;;19.23;3.35;;;;;;;;;;5065783;28;20044;-75
2022/06/12 08:41:48;;;;;;;12.07;2.80;;;;;;;;;;5063793;28;20029;-77
2022/06/12 08:44:24;;;;;;;19.13;3.63;;;;;;;;;;5066041;28;20025;-76
2022/06/12 08:46:50;;;;;;;19.88;3.42;;;;;;;;;;5066422;28;20067;-76
2022/06/12 08:49:25;;;;;;;13.25;2.72;;;;;;;;;;5069602;28;20033;-77
2022/06/12 08:52:08;;;;;;;12.57;2.47;;;;;;;;;;5062042;28;20025;-78
2022/06/12 08:54:37;;;;;;;16.38;3.20;;;;;;;;;;5056156;28;20108;-78
2022/06/12 08:57:07;;;;;;;13.32;3.08;;;;;;;;;;5056849;28;20025;-78
2022/06/12 08:59:36;;;;;;;13.25;2.63;;;;;;;;;;5065470;28;20493;-78
2022/06/12 09:02:04;;;;;;;14.73;3.20;;;;;;;;;;5061255;28;20033;-75
2022/06/12 09:04:30;;;;;;;15.57;3.13;;;;;;;;;;5068517;28;20028;-78
2022/06/12 09:06:59;;;;;;;18.52;3.20;;;;;;;;;;5055777;28;20024;-76
2022/06/12 09:09:46;;;;;;;22.70;3.88;;;;;;;;;;5055357;28;20048;-76
2022/06/12 09:12:31;;;;;;;16.58;2.75;;;;;;;;;;5057598;28;20025;-77
2022/06/12 09:15:23;;;;;;;16.30;2.80;;;;;;;;;;5056259;28;20021;-78
2022/06/12 09:18:10;;;;;;;13.30;2.88;;;;;;;;;;5053806;28;20513;-78
2022/06/12 09:20:55;;;;;;;18.13;2.60;;;;;;;;;;5056880;28;20024;-76
2022/06/12 09:23:40;;;;;;;14.40;2.70;;;;;;;;;;5060987;28;20038;-77
2022/06/12 09:26:06;;;;;;;;;;;;;;;;;;5060022;28;20033;-76
2022/06/12 09:28:40;;;;;;;13.35;3.05;;;;;;;;;;5060118;28;20246;-78
2022/06/12 09:31:29;;;;;;;15.43;3.58;;;;;;;;;;5055520;28;20025;-76
2022/06/12 09:33:55;;;;;;;14.90;2.95;;;;;;;;;;5050594;28;20056;-78
2022/06/12 09:36:24;;;;;;;20.88;3.88;;;;;;;;;;5059488;28;20025;-77
2022/06/12 09:38:58;;;;;;;17.90;3.08;;;;;;;;;;5062454;28;20025;-76
2022/06/12 09:41:24;;;;;;;12.10;3.30;;;;;;;;;;5062229;28;20425;-77
2022/06/12 09:44:11;;;;;;;13.85;3.03;;;;;;;;;;5061659;28;20033;-78
2022/06/12 09:46:52;;;;;;;19.88;2.75;;;;;;;;;;5056941;28;20040;-77
2022/06/12 09:49:31;;;;;;;14.77;2.85;;;;;;;;;;5058164;28;20076;-76
2022/06/12 09:52:06;;;;;;;14.55;2.22;;;;;;;;;;5056703;28;20029;-77
2022/06/12 09:54:32;;;;;;;15.52;2.60;;;;;;;;;;5060202;28;20040;-77
2022/06/12 09:57:11;;;;;;;12.65;3.00;;;;;;;;;;5058975;28;20025;-77
2022/06/12 09:59:57;;;;;;;10.00;2.45;;;;;;;;;;5059799;28;20021;-77
2022/06/12 10:02:27;;;;;;;19.27;3.35;;;;;;;;;;5047234;28;20037;-76
2022/06/12 10:05:14;;;;;;;15.60;3.13;;;;;;;;;;5057536;28;20110;-77
2022/06/12 10:07:46;;;;;;;16.83;2.80;;;;;;;;;;5049110;28;20090;-78
2022/06/12 10:10:16;;;;;;;12.70;2.92;;;;;;;;;;5054785;28;20037;-76
2022/06/12 10:12:44;;;;;;;9.77;2.20;;;;;;;;;;5054218;28;20029;-78
2022/06/12 10:15:12;;;;;;;14.73;2.70;;;;;;;;;;5054552;28;20025;-77
2022/06/12 10:17:48;;;;;;;15.73;2.85;;;;;;;;;;5054718;28;20036;-77
2022/06/12 10:20:20;;;;;;;14.95;2.67;;;;;;;;;;5057192;28;20033;-78
2022/06/12 10:22:47;;;;;;;17.80;2.90;;;;;;;;;;5055101;28;20029;-77
2022/06/12 10:25:19;;;;;;;12.88;2.20;;;;;;;;;;5059626;28;20025;-77
2022/06/12 10:27:46;;;;;;;14.35;2.33;;;;;;;;;;5058588;28;20036;-77
2022/06/12 10:30:23;;;;;;;12.65;2.67;;;;;;;;;;5061525;28;20055;-77
2022/06/12 10:32:52;;;;;;;16.13;2.75;;;;;;;;;;5057917;28;20057;-76
2022/06/12 10:35:19;;;;;;;12.35;2.20;;;;;;;;;;5057562;28;20466;-77
2022/06/12 10:37:45;;;;;;;14.15;2.25;;;;;;;;;;5057505;28;20055;-78
2022/06/12 10:40:26;;;;;;;11.00;2.40;;;;;;;;;;5056374;28;20162;-78
2022/06/12 10:42:58;;;;;;;11.60;2.33;;;;;;;;;;5057116;28;20021;-78
2022/06/12 10:45:29;;;;;;;13.48;2.50;;;;;;;;;;5057108;28;20048;-78
2022/06/12 10:47:56;;;;;;;15.48;2.58;;;;;;;;;;5059183;28;20021;-79
2022/06/12 10:50:22;;;;;;;17.85;2.60;;;;;;;;;;5060034;28;20084;-77
2022/06/12 10:52:54;;;;;;;19.90;2.92;;;;;;;;;;5061791;28;20049;-76
2022/06/12 10:55:24;;;;;;;10.52;2.45;;;;;;;;;;5060958;28;20114;-73
2022/06/12 10:58:16;;;;;;;10.18;2.47;;;;;;;;;;5059530;28;20066;-77
2022/06/12 11:00:46;;;;;;;13.48;2.53;;;;;;;;;;5036301;28;20048;-77
2022/06/12 11:03:14;;;;;;;10.52;2.45;;;;;;;;;;5060199;28;20028;-78
2022/06/12 11:05:49;;;;;;;12.68;2.65;;;;;;;;;;5060091;28;20039;-77
2022/06/12 11:08:21;;;;;;;13.32;2.33;;;;;;;;;;5060241;28;20027;-77
2022/06/12 11:10:46;;;;;;;12.90;2.22;;;;;;;;;;5061913;28;20121;-77
2022/06/12 11:13:16;;;;;;;14.80;2.10;;;;;;;;;;5061968;28;20029;-78
2022/06/12 11:15:54;;;;;;;15.60;2.60;;;;;;;;;;5058304;28;20629;-77
2022/06/12 11:18:38;;;;;;;14.00;2.85;;;;;;;;;;5061570;28;20029;-78
2022/06/12 11:21:22;;;;;;;12.48;2.30;;;;;;;;;;5061239;28;20090;-76
2022/06/12 11:23:59;;;;;;;20.60;3.08;;;;;;;;;;5064890;28;20495;-77
2022/06/12 11:27:04;;;;;;;14.90;2.63;;;;;;;;;;5062909;28;20035;-78
2022/06/12 11:29:39;;;;;;;19.08;3.50;;;;;;;;;;5000752;28;20026;-77
2022/06/12 11:32:06;;;;;;;;;;;;;;;;;;5001129;28;20026;-76
2022/06/12 11:34:50;;;;;;;15.30;2.53;;;;;;;;;;5037238;28;19904;-79
2022/06/12 11:37:35;;;;;;;21.58;2.60;;;;;;;;;;5066827;28;20029;-75
2022/06/12 11:40:08;;;;;;;18.77;2.85;;;;;;;;;;5063608;28;20059;-77
2022/06/12 11:42:54;;;;;;;15.93;2.88;;;;;;;;;;5065231;28;20049;-81
2022/06/12 11:45:38;;;;;;;14.30;2.75;;;;;;;;;;5061774;28;20025;-73
2022/06/12 11:48:09;;;;;;;14.82;3.30;;;;;;;;;;5063799;28;20030;-76
2022/06/12 11:50:45;;;;;;;17.60;2.83;;;;;;;;;;5065184;28;20086;-75
2022/06/12 11:53:15;;;;;;;19.00;2.70;;;;;;;;;;5066770;28;20045;-77
2022/06/12 11:55:45;;;;;;;16.67;3.13;;;;;;;;;;5065438;28;20036;-76
2022/06/12 11:58:14;;;;;;;13.52;2.72;;;;;;;;;;5063153;28;20044;-77
2022/06/12 12:00:49;;;;;;;13.40;2.58;;;;;;;;;;5063274;28;20029;-77
2022/06/12 12:03:21;;;;;;;14.50;2.25;;;;;;;;;;5065990;28;20045;-76
2022/06/12 12:06:06;;;;;;;13.98;2.70;;;;;;;;;;5063886;28;20112;-76
2022/06/12 12:08:48;;;;;;;16.85;3.28;;;;;;;;;;5061753;28;20032;-78
2022/06/12 12:11:14;;;;;;;17.85;3.35;;;;;;;;;;5060969;28;20025;-80
2022/06/12 12:13:42;;;;;;;14.85;2.95;;;;;;;;;;5064200;28;20389;-77
2022/06/12 12:16:35;;;;;;;11.85;2.38;;;;;;;;;;5059525;28;20021;-79
2022/06/12 12:19:03;;;;;;;10.65;2.55;;;;;;;;;;5037493;28;20048;-77
2022/06/12 12:21:29;;;;;;;15.43;2.58;;;;;;;;;;5061571;28;20021;-77
2022/06/12 12:23:56;;;;;;;10.85;2.65;;;;;;;;;;5059592;28;20056;-78
2022/06/12 12:26:25;;;;;;;17.70;3.03;;;;;;;;;;5058871;28;20028;-76
2022/06/12 12:28:53;;;;;;;18.90;3.58;;;;;;;;;;5058278;28;20036;-78
2022/06/12 12:31:19;;;;;;;17.73;3.15;;;;;;;;;;5058563;28;20081;-77
2022/06/12 12:33:46;;;;;;;17.00;3.00;;;;;;;;;;5059218;28;20025;-78
2022/06/12 12:41:46;;;;;;;13.57;3.55;;;;;;;;;;5061793;28;20059;-79
2022/06/12 12:44:13;;;;;;;18.60;3.42;;;;;;;;;;5060096;28;20040;-77
2022/06/12 12:46:47;;;;;;;19.00;3.22;;;;;;;;;;5059986;28;20075;-78
2022/06/12 12:49:25;;;;;;;20.02;3.88;;;;;;;;;;5059920;28;20025;-78
2022/06/12 12:51:52;;;;;;;16.70;3.40;;;;;;;;;;5059104;28;20033;-77
2022/06/12 12:54:20;;;;;;;12.38;2.75;;;;;;;;;;5059745;28;20017;-79
2022/06/12 12:56:55;;;;;;;18.85;3.55;;;;;;;;;;5058792;28;20025;-77
2022/06/12 12:59:22;;;;;;;16.35;3.25;;;;;;;;;;5059862;28;20412;-77
2022/06/12 13:01:48;;;;;;;21.10;5.32;;;;;;;;;;5059501;28;20025;-77
2022/06/12 13:04:19;;;;;;;19.90;4.70;;;;;;;;;;5061561;28;20093;-79
2022/06/12 13:06:48;;;;;;;17.10;3.85;;;;;;;;;;5061914;28;20048;-77
2022/06/12 13:09:17;;;;;;;27.70;5.25;;;;;;;;;;5066595;28;20528;-78
2022/06/12 13:11:55;;;;;;;19.20;3.50;;;;;;;;;;5068977;28;20035;-77
2022/06/12 13:14:27;;;;;;;17.52;3.33;;;;;;;;;;5066943;28;20050;-77
2022/06/12 13:16:54;;;;;;;17.70;3.28;;;;;;;;;;5065526;28;20043;-79
2022/06/12 13:19:29;;;;;;;10.82;2.97;;;;;;;;;;5058815;28;20104;-77
2022/06/12 13:21:55;;;;;;;17.92;3.53;;;;;;;;;;5060092;28;20035;-76
2022/06/12 13:24:24;;;;;;;12.68;3.45;;;;;;;;;;5062965;28;20409;-77
2022/06/12 13:26:50;;;;;;;17.52;2.90;;;;;;;;;;5062887;28;20040;-77
2022/06/12 13:29:18;;;;;;;16.75;3.38;;;;;;;;;;5058725;28;20385;-78
2022/06/12 13:31:54;;;;;;;9.60;2.83;;;;;;;;;;5064082;28;20048;-78
2022/06/12 13:34:20;;;;;;;13.93;2.75;;;;;;;;;;5065506;28;20108;-78
2022/06/12 13:36:46;;;;;;;10.13;2.70;;;;;;;;;;5064165;28;20036;-77
2022/06/12 13:39:31;;;;;;;15.32;3.25;;;;;;;;;;5065375;28;20017;-78
2022/06/12 13:42:16;;;;;;;10.70;2.85;;;;;;;;;;5057994;28;20508;-78
2022/06/12 13:44:43;;;;;;;15.27;3.08;;;;;;;;;;5062275;28;20040;-77
2022/06/12 13:47:18;;;;;;;12.77;2.55;;;;;;;;;;5056247;28;20029;-78
2022/06/12 13:49:55;;;;;;;20.40;3.55;;;;;;;;;;5061949;28;20491;-78
2022/06/12 13:52:45;;;;;;;12.23;4.00;;;;;;;;;;5058916;28;20036;-77
2022/06/12 13:55:30;;;;;;;15.13;4.00;;;;;;;;;;5055781;28;20029;-77
2022/06/12 13:57:56;;;;;;;;;;;;;;;;;;5056162;28;20033;-76
2022/06/12 14:00:45;;;;;;;11.93;2.75;;;;;;;;;;5056646;28;19924;-77
2022/06/12 14:03:25;;;;;;;20.00;4.10;;;;;;;;;;5065170;28;20228;-77
2022/06/12 14:05:54;;;;;;;8.95;3.03;;;;;;;;;;5061698;28;20071;-77
2022/06/12 14:08:20;;;;;;;13.18;3.00;;;;;;;;;;5063163;28;20033;-76
2022/06/12 14:10:48;;;;;;;12.45;3.15;;;;;;;;;;5066990;28;20032;-76
2022/06/12 14:13:17;;;;;;;18.38;4.60;;;;;;;;;;5071023;28;20016;-79
2022/06/12 14:15:43;;;;;;;15.95;3.45;;;;;;;;;;5074129;28;20021;-76
2022/06/12 14:18:30;;;;;;;13.30;2.75;;;;;;;;;;5066336;28;20036;-77
2022/06/12 14:21:19;;;;;;;12.00;2.72;;;;;;;;;;5063242;28;20039;-78
2022/06/12 14:23:50;;;;;;;14.52;3.40;;;;;;;;;;5056825;28;20064;-78
2022/06/12 14:26:31;;;;;;;16.10;3.42;;;;;;;;;;5062615;28;20436;-77
2022/06/12 14:28:57;;;;;;;12.93;3.30;;;;;;;;;;5069784;28;20104;-77
2022/06/12 14:31:34;;;;;;;15.05;3.42;;;;;;;;;;5071277;28;20032;-76
2022/06/12 14:34:05;;;;;;;15.98;3.60;;;;;;;;;;5071731;28;20036;-77
2022/06/12 14:36:35;;;;;;;15.73;3.65;;;;;;;;;;5062428;28;20033;-76
2022/06/12 14:39:12;;;;;;;17.98;4.50;;;;;;;;;;5062139;28;20075;-78
2022/06/12 14:41:46;;;;;;;14.60;3.13;;;;;;;;;;5061084;28;20052;-77
2022/06/12 14:44:12;;;;;;;19.25;3.75;;;;;;;;;;5062560;28;20386;-77
2022/06/12 14:46:38;;;;;;;13.63;3.17;;;;;;;;;;5059340;28;20029;-78
2022/06/12 14:49:07;;;;;;;13.98;3.30;;;;;;;;;;5060446;28;20033;-76
2022/06/12 14:51:32;;;;;;;17.13;3.50;;;;;;;;;;5057787;28;20108;-77
2022/06/12 14:53:59;;;;;;;13.40;3.90;;;;;;;;;;5057526;28;20049;-77
2022/06/12 14:56:26;;;;;;;18.23;4.07;;;;;;;;;;5056304;28;20021;-76
2022/06/12 14:58:53;;;;;;;10.40;3.13;;;;;;;;;;5064561;28;20025;-76
2022/06/12 15:01:21;;;;;;;12.05;3.50;;;;;;;;;;5065921;28;20033;-75
2022/06/12 15:03:47;;;;;;;14.70;3.30;;;;;;;;;;5066009;28;20052;-77
2022/06/12 15:06:13;;;;;;;14.40;4.03;;;;;;;;;;5063308;28;20021;-77
2022/06/12 15:08:40;;;;;;;9.43;2.70;;;;;;;;;;5066574;28;20525;-77